Terminal Aerodrome Forecast
Issued by NWS

Home | Current Version | Previous Version | Graphics & Text | Print | Product List | Glossary On
Versions: 1 2 3 4 5 6 7 8 9 10 11 12 13
000
FTUS43 KUNR 251636 AAA
TAFGCC
TAF AMD
KGCC 251636Z 2517/2612 36011G21KT P6SM SCT120
     FM260100 03010KT P6SM -TSRA BKN050CB OVC100
     FM261000 19005KT P6SM BKN200=

USA.gov is the U.S. government's official web portal to all federal, state and local government web resources and services.